Isle of North Uist, United Kingdom
Current Conditions -  °F | °C
As of 4:50 AM on Monday 22 Dec 2014 (Local Time) from EGPL Reporting Station
Few Clouds Few Clouds  
Wind Chill: 35°   Ceiling: Unl
Heat Index: 45°   Visibility: 6mi
Dew Point: 39°   Wind: 30mph
Humidity: 81%   Direction: 260°W
Pressure: 29.47"   Gusts: 43mph
Location:  57.6°N, 7.16°W
Report Text: EGPL 220450Z AUTO 26026G37KT 9000 FEW020/// 07/04 Q0998
Loading
Personal Weather Stations






























Interactive Weather Map New forecast layout! Learn more

10-Day Weather Forecast

Advertisements
Track Severe Weather on mobile